Карточка аэропорта UAKK

Внимание!
Информация на этой странице в стадии наполнения.
Если вы не увидели какой-то информации, или заметили неточность - пожалуйста сообщите нам!
Спасибо!
Команда RU-STAFF
Название аэропортаКараганда
Название аэропорта (англ.)Karaganda
Превышение1768 ft. (538.9 m.)
Координаты49°40.302', 73°20.118'
Высота перехода10000ft
Эшелон переходаFL120, QNH<733:FL130
Коды ответчика0630-0637, 7220-7227
Зона ОрВДАстана РПИ (UACN)
Данные METARUAKK 130600Z 11004MPS 080V150 9999 SCT050CB 27/14 Q1003 NOSIG RMK QFE706/0941
Проноз погоды (TAF)UAKK 130501Z 1306/1406 09005MPS 9999 SCT040 BKN100 TX29/1309Z TN13/1324Z TEMPO 1306/1312 14008MPS SCT040CB TEMPO 1312/1314 06008MPS -SHRA SCT030CB BECMG 1314/1316 21006MPS TEMPO 1314/1318 29006MPS -SHRA SCT040CB TEMPO 1318/1402 VRB02MPS 5000 BR SCT015
NOTAMshow/hide NOTAM
AWOS   TABLE

Информация о ВПП

ВПП Длина ВПП (м.) Покрытие Курс ВПП Частота ILS
053601Железобетон50109.9
233601Железобетон230111.7

Диспетчерские позиции




Спутниковое изображение